createdAt,value
2018-08-09T00:00:17.229Z,20.65
2018-08-09T00:01:16.264Z,20.62
2018-08-09T00:02:16.550Z,20.62
2018-08-09T00:03:16.827Z,20.59
2018-08-09T00:04:17.103Z,20.58
2018-08-09T00:05:16.389Z,20.54
2018-08-09T00:06:16.665Z,20.49
2018-08-09T00:07:16.935Z,20.51
2018-08-09T00:08:17.202Z,20.44
2018-08-09T00:09:16.474Z,20.38
2018-08-09T00:10:16.746Z,20.34
2018-08-09T00:11:16.790Z,20.29
2018-08-09T00:12:17.055Z,20.25
2018-08-09T00:13:16.328Z,20.20
2018-08-09T00:14:16.599Z,20.18
2018-08-09T00:15:16.879Z,20.16
2018-08-09T00:16:17.146Z,20.18
2018-08-09T00:17:16.409Z,20.18
2018-08-09T00:18:16.671Z,20.16
2018-08-09T00:19:16.941Z,20.14
2018-08-09T00:20:16.231Z,20.13
2018-08-09T00:21:16.269Z,20.14
2018-08-09T00:22:16.529Z,20.08
2018-08-09T00:23:16.795Z,20.06
2018-08-09T00:24:17.055Z,20.06
2018-08-09T00:25:16.332Z,20.03
2018-08-09T00:26:16.601Z,20.06
2018-08-09T00:27:16.884Z,20.07
2018-08-09T00:28:17.150Z,20.06
2018-08-09T00:29:16.421Z,20.06
2018-08-09T00:30:16.692Z,20.04
2018-08-09T00:31:16.731Z,20.08
2018-08-09T00:32:17.005Z,20.13
2018-08-09T00:33:16.272Z,20.14
2018-08-09T00:34:16.546Z,20.17
2018-08-09T00:35:16.807Z,20.21
2018-08-09T00:36:17.094Z,20.18
2018-08-09T00:37:16.365Z,20.17
2018-08-09T00:38:16.626Z,20.18
2018-08-09T00:39:16.886Z,20.14
2018-08-09T00:40:17.159Z,20.13
2018-08-09T00:41:16.214Z,20.08
2018-08-09T00:42:16.496Z,20.08
2018-08-09T00:43:16.764Z,20.04
2018-08-09T00:44:17.030Z,20.04
2018-08-09T00:45:16.295Z,19.93
2018-08-09T00:46:16.582Z,19.91
2018-08-09T00:47:16.844Z,19.90
2018-08-09T00:48:17.108Z,19.87
2018-08-09T00:49:16.380Z,19.87
2018-08-09T00:50:16.654Z,19.87
2018-08-09T00:51:16.697Z,19.86
2018-08-09T00:52:16.965Z,19.89
2018-08-09T00:53:16.232Z,19.94
2018-08-09T00:54:16.517Z,19.93
2018-08-09T00:55:16.798Z,19.91
2018-08-09T00:56:17.233Z,19.91
2018-08-09T00:57:16.497Z,19.97
2018-08-09T00:58:16.773Z,20.01
2018-08-09T00:59:17.051Z,20.06
2018-08-09T01:00:16.336Z,20.03
2018-08-09T01:01:16.387Z,20.07
2018-08-09T01:02:16.671Z,20.08
2018-08-09T01:03:16.943Z,20.11
2018-08-09T01:04:16.233Z,20.13
2018-08-09T01:05:16.526Z,20.13
2018-08-09T01:06:16.794Z,20.14
2018-08-09T01:07:17.075Z,20.10
2018-08-09T01:08:16.357Z,20.11
2018-08-09T01:09:16.620Z,20.07
2018-08-09T01:10:16.900Z,20.06
2018-08-09T01:11:16.940Z,20.04
2018-08-09T01:12:16.202Z,20.00
2018-08-09T01:13:16.468Z,19.99
2018-08-09T01:14:16.778Z,19.97
2018-08-09T01:15:17.035Z,19.94
2018-08-09T01:16:16.303Z,19.94
2018-08-09T01:17:16.577Z,19.97
2018-08-09T01:18:16.858Z,19.96
2018-08-09T01:19:17.137Z,20.00
2018-08-09T01:20:16.439Z,20.00
2018-08-09T01:21:16.471Z,19.97
2018-08-09T01:22:16.751Z,19.99
2018-08-09T01:23:17.024Z,19.99
2018-08-09T01:24:16.312Z,19.94
2018-08-09T01:25:16.576Z,19.94
2018-08-09T01:26:16.840Z,19.91
2018-08-09T01:27:17.108Z,19.89
2018-08-09T01:28:16.370Z,19.84
2018-08-09T01:29:16.636Z,19.84
2018-08-09T01:30:16.920Z,19.80
2018-08-09T01:31:16.956Z,19.77
2018-08-09T01:32:16.224Z,19.81
2018-08-09T01:33:16.493Z,19.89
2018-08-09T01:34:16.764Z,19.86
2018-08-09T01:35:17.032Z,19.81
2018-08-09T01:36:16.304Z,19.81
2018-08-09T01:37:16.573Z,19.81
2018-08-09T01:38:16.843Z,19.80
2018-08-09T01:39:17.109Z,19.83
2018-08-09T01:40:16.383Z,19.80
2018-08-09T01:41:16.432Z,19.76
2018-08-09T01:42:16.702Z,19.74
2018-08-09T01:43:16.973Z,19.74
2018-08-09T01:44:16.240Z,19.69
2018-08-09T01:45:16.522Z,19.68
2018-08-09T01:46:16.799Z,19.63
2018-08-09T01:47:17.077Z,19.60
2018-08-09T01:48:16.341Z,19.58
2018-08-09T01:49:16.614Z,19.58
2018-08-09T01:50:16.883Z,19.58
2018-08-09T01:51:16.932Z,19.49
2018-08-09T01:52:17.198Z,19.46
2018-08-09T01:53:16.475Z,19.45
2018-08-09T01:54:16.747Z,19.39
2018-08-09T01:55:17.013Z,19.32
2018-08-09T01:56:16.276Z,19.31
2018-08-09T01:57:16.553Z,19.30
2018-08-09T01:58:16.817Z,19.31
2018-08-09T01:59:17.100Z,19.30
2018-08-09T02:00:16.364Z,19.28
2018-08-09T02:01:16.418Z,19.27
2018-08-09T02:02:16.690Z,19.25
2018-08-09T02:03:16.953Z,19.31
2018-08-09T02:04:16.228Z,19.30
2018-08-09T02:05:16.506Z,19.31
2018-08-09T02:06:16.785Z,19.34
2018-08-09T02:07:17.136Z,19.27
2018-08-09T02:08:16.405Z,19.30
2018-08-09T02:09:16.699Z,19.30
2018-08-09T02:10:16.988Z,19.30
2018-08-09T02:11:17.017Z,19.30
2018-08-09T02:12:16.294Z,19.25
2018-08-09T02:13:16.569Z,19.25
2018-08-09T02:14:16.837Z,19.22
2018-08-09T02:15:17.115Z,19.18
2018-08-09T02:16:16.390Z,19.17
2018-08-09T02:17:16.655Z,19.15
2018-08-09T02:18:16.923Z,19.14
2018-08-09T02:19:17.187Z,19.17
2018-08-09T02:20:16.459Z,19.13
2018-08-09T02:21:16.504Z,19.14
2018-08-09T02:22:16.787Z,19.13
2018-08-09T02:23:17.086Z,19.10
2018-08-09T02:24:16.333Z,19.07
2018-08-09T02:25:16.595Z,19.07
2018-08-09T02:26:16.861Z,19.04
2018-08-09T02:27:17.126Z,19.03
2018-08-09T02:28:16.398Z,18.98
2018-08-09T02:29:16.675Z,18.97
2018-08-09T02:30:16.969Z,18.98
2018-08-09T02:31:17.004Z,18.95
2018-08-09T02:32:16.272Z,18.90
2018-08-09T02:33:16.538Z,18.87
2018-08-09T02:34:16.810Z,18.82
2018-08-09T02:35:17.095Z,18.80
2018-08-09T02:36:16.383Z,18.76
2018-08-09T02:37:16.658Z,18.77
2018-08-09T02:38:16.945Z,18.73
2018-08-09T02:39:16.222Z,18.72
2018-08-09T02:40:16.512Z,18.72
2018-08-09T02:41:16.558Z,18.67
2018-08-09T02:42:16.839Z,18.66
2018-08-09T02:43:17.112Z,18.65
2018-08-09T02:44:16.383Z,18.62
2018-08-09T02:45:16.656Z,18.59
2018-08-09T02:46:16.933Z,18.58
2018-08-09T02:47:16.255Z,18.54
2018-08-09T02:48:16.540Z,18.54
2018-08-09T02:49:16.836Z,18.54
2018-08-09T02:50:17.123Z,18.49
2018-08-09T02:51:17.171Z,18.49
2018-08-09T02:52:16.466Z,18.49
2018-08-09T02:53:16.737Z,18.52
2018-08-09T02:54:17.010Z,18.48
2018-08-09T02:55:16.285Z,18.48
2018-08-09T02:56:16.559Z,18.41
2018-08-09T02:57:16.831Z,18.44
2018-08-09T02:58:16.232Z,18.41
2018-08-09T02:59:16.515Z,18.41
2018-08-09T03:00:16.791Z,18.41
2018-08-09T03:01:16.850Z,18.36
2018-08-09T03:02:17.120Z,18.35
2018-08-09T03:03:16.389Z,18.33
2018-08-09T03:04:16.967Z,18.33
2018-08-09T03:05:16.261Z,18.36
2018-08-09T03:06:16.524Z,18.35
2018-08-09T03:07:16.792Z,18.38
2018-08-09T03:08:17.385Z,18.38
2018-08-09T03:09:16.654Z,18.42
2018-08-09T03:10:16.933Z,18.41
2018-08-09T03:11:16.975Z,18.39
2018-08-09T03:12:16.275Z,18.38
2018-08-09T03:13:16.554Z,18.39
2018-08-09T03:14:16.823Z,18.39
2018-08-09T03:15:17.113Z,18.42
2018-08-09T03:16:16.396Z,18.42
2018-08-09T03:17:16.670Z,18.44
2018-08-09T03:18:17.030Z,18.45
2018-08-09T03:19:16.294Z,18.48
2018-08-09T03:20:16.594Z,18.46
2018-08-09T03:21:16.645Z,18.45
2018-08-09T03:22:16.925Z,18.41
2018-08-09T03:23:17.187Z,18.39
2018-08-09T03:24:16.500Z,18.41
2018-08-09T03:25:16.828Z,18.38
2018-08-09T03:26:17.102Z,18.36
2018-08-09T03:27:16.366Z,18.36
2018-08-09T03:28:16.637Z,18.36
2018-08-09T03:29:16.906Z,18.33
2018-08-09T03:30:17.181Z,18.33
2018-08-09T03:31:16.250Z,18.32
2018-08-09T03:32:16.528Z,18.28
2018-08-09T03:33:16.795Z,18.25
2018-08-09T03:34:17.075Z,18.25
2018-08-09T03:35:16.343Z,18.19
2018-08-09T03:36:16.612Z,18.19
2018-08-09T03:37:16.875Z,18.17
2018-08-09T03:38:17.145Z,18.24
2018-08-09T03:39:16.415Z,18.21
2018-08-09T03:40:16.686Z,18.22
2018-08-09T03:41:16.744Z,18.27
2018-08-09T03:42:17.021Z,18.29
2018-08-09T03:43:16.291Z,18.31
2018-08-09T03:44:16.552Z,18.28
2018-08-09T03:45:16.824Z,18.28
2018-08-09T03:46:17.092Z,18.28
2018-08-09T03:47:16.353Z,18.31
2018-08-09T03:48:16.632Z,18.24
2018-08-09T03:49:16.906Z,18.07
2018-08-09T03:50:17.184Z,18.00
2018-08-09T03:51:16.243Z,17.91
2018-08-09T03:52:16.510Z,17.89
2018-08-09T03:53:16.779Z,17.86
2018-08-09T03:54:17.075Z,17.70
2018-08-09T03:55:16.362Z,17.66
2018-08-09T03:56:16.633Z,17.66
2018-08-09T03:57:16.911Z,17.72
2018-08-09T03:58:17.176Z,17.74
2018-08-09T03:59:16.493Z,17.79
2018-08-09T04:00:16.797Z,17.77
2018-08-09T04:01:16.822Z,17.77
2018-08-09T04:02:17.086Z,17.79
2018-08-09T04:03:16.365Z,17.76
2018-08-09T04:04:16.635Z,17.79
2018-08-09T04:05:16.915Z,17.83
2018-08-09T04:06:17.183Z,17.81
2018-08-09T04:07:16.446Z,17.83
2018-08-09T04:08:16.707Z,17.86
2018-08-09T04:09:16.994Z,17.84
2018-08-09T04:10:16.269Z,17.89
2018-08-09T04:11:16.311Z,17.93
2018-08-09T04:12:16.585Z,17.87
2018-08-09T04:13:16.849Z,17.89
2018-08-09T04:14:17.118Z,17.89
2018-08-09T04:15:16.400Z,17.86
2018-08-09T04:16:16.675Z,17.87
2018-08-09T04:17:16.956Z,17.89
2018-08-09T04:18:16.222Z,17.89
2018-08-09T04:19:16.508Z,17.90
2018-08-09T04:20:16.790Z,17.90
2018-08-09T04:21:16.825Z,17.91
2018-08-09T04:22:17.087Z,17.91
2018-08-09T04:23:16.350Z,17.90
2018-08-09T04:24:16.615Z,17.93
2018-08-09T04:25:16.908Z,17.97
2018-08-09T04:26:17.179Z,17.97
2018-08-09T04:27:16.445Z,17.98
2018-08-09T04:28:16.719Z,17.97
2018-08-09T04:29:17.005Z,17.97
2018-08-09T04:30:16.292Z,17.91
2018-08-09T04:31:16.325Z,17.94
2018-08-09T04:32:16.585Z,17.94
2018-08-09T04:33:16.851Z,17.94
2018-08-09T04:34:17.120Z,17.96
2018-08-09T04:35:16.392Z,17.96
2018-08-09T04:36:16.659Z,17.97
2018-08-09T04:37:16.929Z,18.00
2018-08-09T04:38:16.237Z,18.05
2018-08-09T04:39:16.502Z,18.08
2018-08-09T04:40:16.786Z,18.08
2018-08-09T04:41:16.831Z,18.11
2018-08-09T04:42:17.104Z,18.12
2018-08-09T04:43:16.393Z,18.12
2018-08-09T04:44:16.658Z,18.12
2018-08-09T04:45:16.929Z,18.17
2018-08-09T04:46:17.204Z,18.21
2018-08-09T04:47:16.479Z,18.27
2018-08-09T04:48:16.753Z,18.36
2018-08-09T04:49:17.036Z,18.41
2018-08-09T04:50:16.403Z,18.45
2018-08-09T04:51:16.448Z,18.46
2018-08-09T04:52:16.718Z,18.45
2018-08-09T04:53:16.984Z,18.44
2018-08-09T04:54:16.250Z,18.56
2018-08-09T04:55:16.523Z,18.58
2018-08-09T04:56:16.783Z,18.51
2018-08-09T04:57:17.050Z,18.51
2018-08-09T04:58:16.350Z,18.52
2018-08-09T04:59:16.641Z,18.52
2018-08-09T05:00:16.920Z,18.62
2018-08-09T05:01:16.975Z,18.63
2018-08-09T05:02:16.251Z,18.65
2018-08-09T05:03:16.519Z,18.66
2018-08-09T05:04:16.789Z,18.67
2018-08-09T05:05:17.063Z,18.70
2018-08-09T05:06:16.334Z,18.79
2018-08-09T05:07:16.595Z,18.80
2018-08-09T05:08:16.870Z,18.83
2018-08-09T05:09:17.147Z,18.86
2018-08-09T05:10:16.464Z,18.90
2018-08-09T05:11:16.462Z,18.88
2018-08-09T05:12:16.726Z,18.91
2018-08-09T05:13:16.988Z,18.95
2018-08-09T05:14:16.252Z,18.95
2018-08-09T05:15:16.524Z,18.95
2018-08-09T05:16:17.167Z,18.97
2018-08-09T05:17:16.437Z,18.97
2018-08-09T05:18:16.700Z,18.97
2018-08-09T05:19:16.969Z,19.03
2018-08-09T05:20:16.246Z,19.05
2018-08-09T05:21:16.291Z,19.05
2018-08-09T05:22:16.607Z,19.07
2018-08-09T05:23:16.888Z,19.13
2018-08-09T05:24:17.156Z,19.14
2018-08-09T05:25:16.443Z,19.14
2018-08-09T05:26:16.711Z,19.17
2018-08-09T05:27:16.991Z,19.17
2018-08-09T05:28:16.235Z,19.21
2018-08-09T05:29:16.509Z,19.24
2018-08-09T05:30:16.787Z,19.20
2018-08-09T05:31:16.837Z,19.27
2018-08-09T05:32:17.113Z,19.28
2018-08-09T05:33:16.389Z,19.32
2018-08-09T05:34:16.736Z,19.32
2018-08-09T05:35:16.243Z,19.28
2018-08-09T05:36:16.542Z,19.28
2018-08-09T05:37:16.816Z,19.28
2018-08-09T05:38:17.088Z,19.32
2018-08-09T05:39:16.355Z,19.45
2018-08-09T05:40:16.629Z,19.59
2018-08-09T05:41:16.713Z,19.60
2018-08-09T05:42:16.982Z,19.70
2018-08-09T05:43:16.258Z,19.73
2018-08-09T05:44:16.535Z,19.81
2018-08-09T05:45:16.844Z,19.87
2018-08-09T05:46:17.168Z,19.91
2018-08-09T05:47:16.439Z,19.93
2018-08-09T05:48:16.714Z,20.01
2018-08-09T05:49:16.992Z,20.04
2018-08-09T05:50:16.281Z,20.11
2018-08-09T05:51:16.304Z,20.13
2018-08-09T05:52:16.565Z,20.14
2018-08-09T05:53:16.923Z,20.32
2018-08-09T05:54:16.326Z,20.34
2018-08-09T05:55:16.590Z,20.37
2018-08-09T05:56:16.859Z,20.41
2018-08-09T05:57:17.124Z,20.38
2018-08-09T05:58:16.397Z,20.46
2018-08-09T05:59:16.653Z,20.44
2018-08-09T06:00:16.939Z,20.58
2018-08-09T06:01:16.973Z,20.60
2018-08-09T06:02:16.237Z,20.69
2018-08-09T06:03:16.511Z,20.69
2018-08-09T06:04:16.776Z,20.72
2018-08-09T06:05:17.060Z,20.80
2018-08-09T06:06:16.330Z,20.87
2018-08-09T06:07:16.600Z,21.03
2018-08-09T06:08:16.868Z,21.03
2018-08-09T06:09:17.146Z,21.09
2018-08-09T06:10:16.435Z,21.15
2018-08-09T06:11:16.492Z,21.18
2018-08-09T06:12:16.764Z,21.18
2018-08-09T06:13:17.130Z,21.18
2018-08-09T06:14:16.427Z,21.23
2018-08-09T06:15:16.706Z,21.21
2018-08-09T06:16:16.974Z,21.25
2018-08-09T06:17:16.235Z,21.24
2018-08-09T06:18:16.503Z,21.30
2018-08-09T06:19:16.778Z,21.37
2018-08-09T06:20:17.060Z,21.36
2018-08-09T06:21:17.093Z,21.38
2018-08-09T06:22:16.354Z,21.42
2018-08-09T06:23:16.623Z,21.44
2018-08-09T06:24:16.893Z,21.45
2018-08-09T06:25:17.185Z,21.54
2018-08-09T06:26:16.528Z,21.80
2018-08-09T06:27:16.828Z,21.73
2018-08-09T06:28:17.093Z,21.80
2018-08-09T06:29:16.369Z,21.99
2018-08-09T06:30:16.656Z,22.09
2018-08-09T06:31:16.691Z,22.09
2018-08-09T06:32:16.963Z,22.26
2018-08-09T06:33:16.237Z,22.35
2018-08-09T06:34:16.511Z,22.37
2018-08-09T06:35:16.783Z,22.33
2018-08-09T06:36:17.045Z,22.48
2018-08-09T06:37:16.320Z,22.50
2018-08-09T06:38:16.588Z,22.57
2018-08-09T06:39:16.855Z,22.44
2018-08-09T06:40:17.149Z,22.54
2018-08-09T06:41:17.197Z,22.75
2018-08-09T06:42:16.464Z,22.88
2018-08-09T06:43:16.732Z,22.85
2018-08-09T06:44:17.009Z,22.85
2018-08-09T06:45:16.285Z,22.74
2018-08-09T06:46:16.561Z,22.98
2018-08-09T06:47:16.827Z,23.10
2018-08-09T06:48:17.093Z,23.22
2018-08-09T06:49:16.368Z,23.61
2018-08-09T06:50:16.645Z,23.81
2018-08-09T06:51:16.699Z,23.96
2018-08-09T06:52:16.965Z,24.12
2018-08-09T06:53:16.239Z,24.13
2018-08-09T06:54:16.498Z,24.20
2018-08-09T06:55:16.772Z,24.29
2018-08-09T06:56:17.088Z,24.56
2018-08-09T06:57:16.453Z,24.56
2018-08-09T06:58:16.725Z,24.70
2018-08-09T06:59:16.990Z,24.67
2018-08-09T07:00:16.263Z,24.75
2018-08-09T07:01:16.311Z,24.77
2018-08-09T07:02:16.593Z,24.88
2018-08-09T07:03:16.856Z,25.33
2018-08-09T07:04:17.122Z,25.02
2018-08-09T07:05:16.385Z,24.99
2018-08-09T07:06:16.649Z,25.12
2018-08-09T07:07:16.933Z,25.08
2018-08-09T07:08:16.204Z,25.07
2018-08-09T07:09:16.471Z,25.08
2018-08-09T07:10:16.762Z,25.16
2018-08-09T07:11:16.803Z,25.11
2018-08-09T07:12:17.076Z,25.15
2018-08-09T07:13:16.340Z,25.12
2018-08-09T07:14:16.609Z,25.19
2018-08-09T07:15:16.906Z,25.08
2018-08-09T07:16:17.175Z,25.07
2018-08-09T07:17:16.449Z,25.32
2018-08-09T07:18:16.726Z,25.21
2018-08-09T07:19:16.984Z,25.35
2018-08-09T07:20:16.274Z,25.18
2018-08-09T07:21:16.305Z,25.09
2018-08-09T07:22:16.576Z,25.01
2018-08-09T07:23:16.850Z,25.14
2018-08-09T07:24:17.121Z,25.22
2018-08-09T07:25:16.391Z,25.12
2018-08-09T07:26:16.705Z,24.92
2018-08-09T07:27:17.050Z,24.84
2018-08-09T07:28:16.321Z,25.33
2018-08-09T07:29:16.596Z,25.55
2018-08-09T07:30:16.885Z,25.67
2018-08-09T07:31:16.914Z,25.67
2018-08-09T07:32:17.180Z,25.53
2018-08-09T07:33:16.442Z,25.46
2018-08-09T07:34:16.711Z,25.35
2018-08-09T07:35:16.987Z,25.30
2018-08-09T07:36:16.252Z,25.23
2018-08-09T07:37:16.820Z,25.43
2018-08-09T07:38:17.098Z,25.37
2018-08-09T07:39:16.374Z,25.23
2018-08-09T07:40:16.678Z,25.30
2018-08-09T07:41:16.754Z,25.70
2018-08-09T07:42:17.019Z,25.67
2018-08-09T07:43:16.285Z,25.66
2018-08-09T07:44:16.556Z,25.62
2018-08-09T07:45:16.831Z,25.70
2018-08-09T07:46:17.114Z,26.00
2018-08-09T07:47:16.398Z,26.07
2018-08-09T07:48:16.661Z,26.08
2018-08-09T07:49:16.921Z,26.25
2018-08-09T07:50:17.208Z,26.12
2018-08-09T07:51:16.260Z,26.09
2018-08-09T07:52:16.603Z,26.11
2018-08-09T07:53:16.871Z,26.04
2018-08-09T07:54:17.226Z,26.13
2018-08-09T07:55:16.548Z,26.18
2018-08-09T07:56:16.813Z,26.12
2018-08-09T07:57:17.107Z,26.28
2018-08-09T07:58:16.372Z,26.24
2018-08-09T07:59:16.632Z,26.63
2018-08-09T08:00:16.914Z,26.50
2018-08-09T08:01:16.953Z,26.48
2018-08-09T08:02:16.215Z,26.45
2018-08-09T08:03:16.494Z,26.40
2018-08-09T08:04:16.761Z,26.48
2018-08-09T08:05:17.039Z,26.59
2018-08-09T08:06:16.386Z,26.53
2018-08-09T08:07:16.786Z,26.67
2018-08-09T08:08:17.135Z,26.67
2018-08-09T08:09:16.497Z,26.66
2018-08-09T08:10:16.775Z,26.66
2018-08-09T08:11:16.799Z,26.58
2018-08-09T08:12:17.061Z,26.77
2018-08-09T08:13:16.337Z,26.70
2018-08-09T08:14:16.603Z,26.79
2018-08-09T08:15:16.875Z,26.79
2018-08-09T08:16:17.149Z,26.97
2018-08-09T08:17:16.410Z,27.11
2018-08-09T08:18:16.671Z,27.20
2018-08-09T08:19:16.943Z,27.28
2018-08-09T08:20:16.214Z,27.11
2018-08-09T08:21:16.261Z,27.20
2018-08-09T08:22:16.534Z,27.29
2018-08-09T08:23:16.799Z,27.22
2018-08-09T08:24:17.082Z,27.34
2018-08-09T08:25:16.353Z,27.35
2018-08-09T08:26:16.617Z,27.28
2018-08-09T08:27:16.883Z,27.41
2018-08-09T08:28:17.151Z,27.72
2018-08-09T08:29:16.390Z,27.44
2018-08-09T08:30:16.663Z,27.61
2018-08-09T08:31:16.726Z,27.56
2018-08-09T08:32:16.997Z,27.70
2018-08-09T08:33:16.259Z,27.65
2018-08-09T08:34:16.514Z,27.55
2018-08-09T08:35:16.778Z,27.45
2018-08-09T08:36:17.062Z,27.46
2018-08-09T08:37:16.332Z,27.55
2018-08-09T08:38:16.641Z,27.72
2018-08-09T08:39:16.914Z,27.70
2018-08-09T08:40:17.156Z,28.11
2018-08-09T08:41:16.252Z,28.03
2018-08-09T08:42:16.538Z,28.09
2018-08-09T08:43:16.804Z,28.23
2018-08-09T08:44:17.405Z,28.30
2018-08-09T08:45:16.689Z,28.32
2018-08-09T08:46:16.958Z,28.18
2018-08-09T08:47:16.227Z,28.20
2018-08-09T08:48:16.560Z,28.20
2018-08-09T08:49:16.820Z,28.31
2018-08-09T08:50:17.117Z,28.21
2018-08-09T08:51:17.157Z,28.21
2018-08-09T08:52:16.428Z,28.32
2018-08-09T08:53:16.792Z,28.24
2018-08-09T08:54:16.257Z,28.34
2018-08-09T08:55:16.560Z,28.35
2018-08-09T08:56:17.027Z,28.38
2018-08-09T08:57:16.310Z,28.38
2018-08-09T08:58:16.595Z,28.45
2018-08-09T08:59:16.863Z,28.51
2018-08-09T09:00:17.133Z,28.59
2018-08-09T09:01:17.495Z,28.64
2018-08-09T09:02:16.767Z,28.65
2018-08-09T09:03:17.038Z,28.69
2018-08-09T09:04:16.317Z,28.79
2018-08-09T09:05:16.656Z,28.86
2018-08-09T09:06:16.929Z,28.97
2018-08-09T09:07:17.500Z,29.04
2018-08-09T09:08:16.764Z,29.07
2018-08-09T09:09:17.046Z,29.14
2018-08-09T09:10:16.325Z,29.21
2018-08-09T09:11:16.375Z,29.23
2018-08-09T09:12:16.647Z,29.21
2018-08-09T09:13:16.919Z,29.20
2018-08-09T09:14:17.190Z,29.23
2018-08-09T09:15:16.465Z,29.23
2018-08-09T09:16:16.728Z,29.31
2018-08-09T09:17:17.031Z,29.41
2018-08-09T09:18:16.304Z,29.26
2018-08-09T09:19:16.581Z,29.31
2018-08-09T09:20:17.033Z,29.38
2018-08-09T09:21:17.070Z,29.45
2018-08-09T09:22:16.342Z,29.44
2018-08-09T09:23:16.614Z,29.67
2018-08-09T09:24:16.885Z,29.69
2018-08-09T09:25:17.160Z,29.84
2018-08-09T09:26:16.428Z,29.79
2018-08-09T09:27:16.697Z,29.84
2018-08-09T09:28:16.979Z,29.88
2018-08-09T09:29:16.244Z,29.98
2018-08-09T09:30:16.516Z,29.86
2018-08-09T09:31:16.556Z,29.93
2018-08-09T09:32:16.829Z,30.06
2018-08-09T09:33:17.090Z,30.09
2018-08-09T09:34:16.357Z,30.05
2018-08-09T09:35:16.625Z,30.09
2018-08-09T09:36:16.893Z,30.41
2018-08-09T09:37:17.168Z,30.23
2018-08-09T09:38:16.426Z,30.17
2018-08-09T09:39:16.688Z,30.28
2018-08-09T09:40:16.950Z,29.95
2018-08-09T09:41:17.040Z,30.00
2018-08-09T09:42:16.353Z,30.15
2018-08-09T09:43:16.616Z,30.13
2018-08-09T09:44:16.887Z,30.24
2018-08-09T09:45:17.157Z,30.23
2018-08-09T09:46:16.440Z,30.46
2018-08-09T09:47:16.708Z,30.48
2018-08-09T09:48:16.970Z,30.46
2018-08-09T09:49:16.236Z,30.57
2018-08-09T09:50:16.517Z,30.54
2018-08-09T09:51:16.541Z,30.57
2018-08-09T09:52:16.825Z,30.71
2018-08-09T09:53:17.096Z,30.96
2018-08-09T09:54:16.366Z,31.05
2018-08-09T09:55:16.644Z,31.06
2018-08-09T09:56:16.914Z,31.20
2018-08-09T09:57:17.198Z,31.26
2018-08-09T09:58:16.475Z,31.23
2018-08-09T09:59:16.743Z,31.23
2018-08-09T10:00:17.035Z,31.20
2018-08-09T10:01:17.082Z,31.26
2018-08-09T10:02:16.347Z,31.30
2018-08-09T10:03:16.632Z,31.16
2018-08-09T10:04:16.908Z,31.01
2018-08-09T10:05:17.178Z,30.48
2018-08-09T10:06:16.457Z,30.47
2018-08-09T10:07:16.794Z,30.58
2018-08-09T10:08:16.243Z,30.64
2018-08-09T10:09:16.524Z,31.20
2018-08-09T10:10:16.799Z,31.33
2018-08-09T10:11:16.868Z,31.02
2018-08-09T10:12:17.131Z,31.19
2018-08-09T10:13:16.394Z,31.23
2018-08-09T10:14:16.666Z,30.93
2018-08-09T10:15:16.925Z,31.05
2018-08-09T10:16:17.189Z,31.01
2018-08-09T10:17:16.450Z,30.83
2018-08-09T10:18:16.725Z,31.22
2018-08-09T10:19:16.993Z,31.16
2018-08-09T10:20:16.275Z,31.09
2018-08-09T10:21:16.314Z,30.98
2018-08-09T10:22:16.578Z,31.10
2018-08-09T10:23:16.845Z,31.25
2018-08-09T10:24:16.433Z,31.37
2018-08-09T10:25:16.709Z,31.36
2018-08-09T10:26:16.974Z,31.63
2018-08-09T10:27:16.257Z,31.44
2018-08-09T10:28:16.526Z,31.30
2018-08-09T10:29:16.804Z,31.23
2018-08-09T10:30:17.093Z,31.43
2018-08-09T10:31:17.136Z,31.34
2018-08-09T10:32:16.406Z,31.16
2018-08-09T10:33:16.670Z,31.28
2018-08-09T10:34:16.946Z,31.41
2018-08-09T10:35:16.223Z,31.41
2018-08-09T10:36:16.493Z,31.57
2018-08-09T10:37:16.780Z,31.73
2018-08-09T10:38:17.053Z,31.61
2018-08-09T10:39:16.325Z,31.18
2018-08-09T10:40:16.616Z,31.20
2018-08-09T10:41:16.663Z,31.49
2018-08-09T10:42:16.942Z,31.53
2018-08-09T10:43:16.209Z,31.49
2018-08-09T10:44:16.475Z,31.46
2018-08-09T10:45:16.752Z,31.16
2018-08-09T10:46:17.023Z,31.06
2018-08-09T10:47:16.305Z,31.16
2018-08-09T10:48:16.577Z,31.73
2018-08-09T10:49:16.851Z,31.75
2018-08-09T10:50:17.126Z,31.73
2018-08-09T10:51:17.179Z,31.73
2018-08-09T10:52:16.443Z,31.70
2018-08-09T10:53:16.708Z,31.59
2018-08-09T10:54:16.980Z,31.67
2018-08-09T10:55:16.246Z,31.54
2018-08-09T10:56:16.525Z,31.77
2018-08-09T10:57:16.801Z,31.94
2018-08-09T10:58:17.084Z,31.89
2018-08-09T10:59:16.356Z,31.85
2018-08-09T11:00:16.639Z,31.84
2018-08-09T11:01:16.686Z,31.80
2018-08-09T11:02:16.950Z,31.68
2018-08-09T11:03:16.212Z,31.49
2018-08-09T11:04:16.489Z,31.50
2018-08-09T11:05:16.757Z,31.47
2018-08-09T11:06:17.026Z,31.85
2018-08-09T11:07:16.305Z,31.92
2018-08-09T11:08:16.595Z,31.95
2018-08-09T11:09:16.881Z,31.94
2018-08-09T11:10:17.157Z,32.02
2018-08-09T11:11:16.222Z,32.04
2018-08-09T11:12:16.501Z,31.75
2018-08-09T11:13:16.776Z,31.74
2018-08-09T11:14:17.070Z,31.87
2018-08-09T11:15:16.359Z,31.87
2018-08-09T11:16:16.626Z,31.95
2018-08-09T11:17:16.889Z,32.33
2018-08-09T11:18:17.168Z,32.36
2018-08-09T11:19:16.440Z,32.49
2018-08-09T11:20:16.711Z,32.69
2018-08-09T11:21:16.755Z,32.69
2018-08-09T11:22:17.035Z,32.59
2018-08-09T11:23:16.305Z,32.73
2018-08-09T11:24:16.957Z,32.74
2018-08-09T11:25:16.233Z,32.39
2018-08-09T11:26:16.501Z,32.48
2018-08-09T11:27:16.783Z,32.58
2018-08-09T11:28:17.068Z,32.63
2018-08-09T11:29:16.333Z,32.90
2018-08-09T11:30:16.607Z,32.97
2018-08-09T11:31:16.643Z,32.93
2018-08-09T11:32:16.904Z,32.91
2018-08-09T11:33:17.166Z,32.86
2018-08-09T11:34:16.441Z,32.60
2018-08-09T11:35:16.737Z,32.60
2018-08-09T11:36:17.016Z,32.90
2018-08-09T11:37:16.323Z,33.28
2018-08-09T11:38:16.603Z,33.35
2018-08-09T11:39:16.883Z,33.42
2018-08-09T11:40:17.178Z,32.81
2018-08-09T11:41:16.224Z,32.81
2018-08-09T11:42:16.499Z,32.93
2018-08-09T11:43:16.771Z,32.74
2018-08-09T11:44:17.056Z,32.73
2018-08-09T11:45:16.342Z,32.76
2018-08-09T11:46:16.612Z,32.77
2018-08-09T11:47:16.882Z,32.86
2018-08-09T11:48:17.160Z,32.67
2018-08-09T11:49:16.449Z,32.76
2018-08-09T11:50:16.788Z,32.79
2018-08-09T11:51:16.835Z,33.06
2018-08-09T11:52:17.102Z,33.13
2018-08-09T11:53:16.385Z,33.10
2018-08-09T11:54:16.704Z,33.08
2018-08-09T11:55:16.992Z,33.46
2018-08-09T11:56:16.370Z,33.41
2018-08-09T11:57:16.999Z,33.07
2018-08-09T11:58:16.381Z,32.81
2018-08-09T11:59:16.662Z,32.87
2018-08-09T12:00:16.947Z,32.71
2018-08-09T12:01:17.009Z,32.50
2018-08-09T12:02:16.328Z,32.46
2018-08-09T12:03:16.620Z,32.69
2018-08-09T12:04:17.041Z,32.79
2018-08-09T12:05:16.317Z,33.00
2018-08-09T12:06:16.592Z,32.74
2018-08-09T12:07:16.867Z,32.73
2018-08-09T12:08:17.145Z,32.86
2018-08-09T12:09:16.418Z,32.96
2018-08-09T12:10:16.706Z,33.35
2018-08-09T12:11:16.732Z,33.62
2018-08-09T12:12:16.999Z,33.51
2018-08-09T12:13:16.277Z,33.14
2018-08-09T12:14:16.546Z,32.93
2018-08-09T12:15:16.853Z,32.87
2018-08-09T12:16:17.435Z,33.03
2018-08-09T12:17:16.701Z,33.24
2018-08-09T12:18:16.970Z,33.18
2018-08-09T12:19:16.235Z,33.14
2018-08-09T12:20:16.527Z,33.28
2018-08-09T12:21:16.574Z,33.13
2018-08-09T12:22:16.849Z,33.04
2018-08-09T12:23:17.203Z,33.15
2018-08-09T12:24:16.516Z,33.04
2018-08-09T12:25:16.804Z,33.22
2018-08-09T12:26:17.083Z,33.18
2018-08-09T12:27:16.354Z,32.91
2018-08-09T12:28:16.626Z,32.87
2018-08-09T12:29:16.894Z,32.70
2018-08-09T12:30:17.204Z,32.86
2018-08-09T12:31:16.213Z,32.94
2018-08-09T12:32:16.497Z,33.07
2018-08-09T12:33:16.797Z,33.30
2018-08-09T12:34:17.216Z,33.15
2018-08-09T12:35:16.488Z,33.18
2018-08-09T12:36:16.758Z,33.14
2018-08-09T12:37:17.033Z,33.12
2018-08-09T12:38:16.296Z,33.24
2018-08-09T12:39:16.566Z,33.31
2018-08-09T12:40:16.847Z,33.22
2018-08-09T12:41:16.876Z,33.37
2018-08-09T12:42:17.145Z,33.19
2018-08-09T12:43:16.417Z,33.08
2018-08-09T12:44:16.691Z,33.09
2018-08-09T12:45:17.006Z,33.15
2018-08-09T12:46:16.474Z,33.20
2018-08-09T12:47:16.746Z,33.11
2018-08-09T12:48:17.017Z,33.16
2018-08-09T12:49:16.282Z,33.20
2018-08-09T12:50:16.558Z,33.29
2018-08-09T12:51:16.591Z,33.22
2018-08-09T12:52:16.860Z,33.11